Time,TemperatureF,DewpointF,PressureIn,WindDirection,WindDirectionDegrees,WindSpeedMPH,WindSpeedGustMPH,Humidity,HourlyPrecipIn,Conditions,Clouds,dailyrainin,SoftwareType,DateUTC
2013-08-25 08:07:00,-999.0,-99.9,-100.00,North,-999,-999.0,-999.0,-999,-99.99,,,-99.99,Acu-Link.com,2013-08-25 13:07:00,
2013-08-25 08:23:00,78.3,70.9,30.02,SE,135,5.8,-999.0,78,-99.99,,,0.00,Acu-Link.com,2013-08-25 13:23:00,
2013-08-25 08:38:00,77.7,70.7,30.03,SSW,202,3.7,-999.0,79,-99.99,,,0.00,Acu-Link.com,2013-08-25 13:38:00,
2013-08-25 08:53:00,78.6,71.1,30.01,SE,135,6.3,-999.0,78,-99.99,,,0.00,Acu-Link.com,2013-08-25 13:53:00,
2013-08-25 09:08:00,79.5,71.6,30.02,ESE,112,3.2,-999.0,77,-99.99,,,0.00,Acu-Link.com,2013-08-25 14:08:00,
2013-08-25 09:23:00,80.2,71.9,30.03,South,180,6.3,-999.0,76,-99.99,,,0.00,Acu-Link.com,2013-08-25 14:23:00,
2013-08-25 09:39:00,80.2,71.5,30.02,SSW,202,5.3,-999.0,75,-99.99,,,0.00,Acu-Link.com,2013-08-25 14:39:00,
2013-08-25 09:54:00,81.1,72.0,30.02,SSW,202,2.7,-999.0,74,-99.99,,,0.00,Acu-Link.com,2013-08-25 14:54:00,
2013-08-25 10:09:00,81.5,71.6,30.03,ESE,112,4.7,-999.0,72,-99.99,,,0.00,Acu-Link.com,2013-08-25 15:09:00,
2013-08-25 10:24:00,81.9,72.0,30.01,SE,135,7.3,-999.0,72,-99.99,,,0.00,Acu-Link.com,2013-08-25 15:24:00,
2013-08-25 10:39:00,82.0,71.2,30.01,SE,135,6.3,-999.0,70,-99.99,,,0.00,Acu-Link.com,2013-08-25 15:39:00,
2013-08-25 10:55:00,83.5,73.1,30.02,ESE,112,5.3,-999.0,71,-99.99,,,0.00,Acu-Link.com,2013-08-25 15:55:00,
2013-08-25 11:10:00,83.7,72.4,30.01,South,180,6.3,-999.0,69,-99.99,,,0.00,Acu-Link.com,2013-08-25 16:10:00,
2013-08-25 11:25:00,84.7,74.2,30.00,SE,135,3.2,-999.0,71,-99.99,,,0.00,Acu-Link.com,2013-08-25 16:25:00,
2013-08-25 11:40:00,84.6,73.3,30.00,South,180,5.3,-999.0,69,-99.99,,,0.00,Acu-Link.com,2013-08-25 16:40:00,
2013-08-25 11:55:00,84.4,73.1,30.01,SSE,157,5.8,-999.0,69,-99.99,,,0.00,Acu-Link.com,2013-08-25 16:55:00,
2013-08-25 12:11:00,84.6,72.8,30.00,SE,135,4.7,-999.0,68,-99.99,,,0.00,Acu-Link.com,2013-08-25 17:11:00,
2013-08-25 12:26:00,85.5,74.1,29.99,ENE,67,1.1,-999.0,69,-99.99,,,0.00,Acu-Link.com,2013-08-25 17:26:00,
2013-08-25 12:41:00,85.1,73.3,29.98,ESE,112,2.2,-999.0,68,-99.99,,,0.00,Acu-Link.com,2013-08-25 17:41:00,
2013-08-25 12:56:00,87.1,75.2,29.98,SSE,157,4.2,-999.0,68,-99.99,,,0.00,Acu-Link.com,2013-08-25 17:56:00,
2013-08-25 13:12:00,85.6,74.7,29.97,South,180,2.7,-999.0,70,-99.99,,,0.00,Acu-Link.com,2013-08-25 18:12:00,
2013-08-25 13:27:00,84.7,73.4,29.96,SSE,157,3.2,-999.0,69,-99.99,,,0.00,Acu-Link.com,2013-08-25 18:27:00,
2013-08-25 13:42:00,84.9,74.0,29.97,ESE,112,0.0,-999.0,70,-99.99,,,0.00,Acu-Link.com,2013-08-25 18:42:00,
2013-08-25 13:57:00,85.3,73.9,29.97,West,270,0.0,-999.0,69,-99.99,,,0.00,Acu-Link.com,2013-08-25 18:57:00,
2013-08-25 14:12:00,87.8,75.0,29.95,SSE,157,0.0,-999.0,66,-99.99,,,0.00,Acu-Link.com,2013-08-25 19:12:00,
2013-08-25 14:28:00,85.3,74.4,29.96,SSW,202,0.0,-999.0,70,-99.99,,,0.00,Acu-Link.com,2013-08-25 19:28:00,
2013-08-25 14:43:00,88.3,76.4,29.94,ESE,112,3.2,-999.0,68,-99.99,,,0.00,Acu-Link.com,2013-08-25 19:43:00,
2013-08-25 14:58:00,89.6,76.7,29.95,SE,135,6.8,-999.0,66,-99.99,,,0.00,Acu-Link.com,2013-08-25 19:58:00,
2013-08-25 15:13:00,88.3,74.5,29.94,ESE,112,2.7,-999.0,64,-99.99,,,0.00,Acu-Link.com,2013-08-25 20:13:00,
2013-08-25 15:28:00,86.4,73.7,29.93,ESE,112,5.8,-999.0,66,-99.99,,,0.00,Acu-Link.com,2013-08-25 20:28:00,
2013-08-25 15:44:00,88.0,76.1,29.92,SE,135,3.7,-999.0,68,-99.99,,,0.00,Acu-Link.com,2013-08-25 20:44:00,
2013-08-25 15:59:00,87.1,73.4,29.94,SE,135,2.2,-999.0,64,-99.99,,,0.00,Acu-Link.com,2013-08-25 20:59:00,
2013-08-25 16:14:00,87.1,74.3,29.93,SSE,157,4.2,-999.0,66,-99.99,,,0.00,Acu-Link.com,2013-08-25 21:14:00,
2013-08-25 16:29:00,86.7,73.5,29.93,SE,135,5.8,-999.0,65,-99.99,,,0.00,Acu-Link.com,2013-08-25 21:29:00,
2013-08-25 16:45:00,86.2,72.1,29.93,SSE,157,4.7,-999.0,63,-99.99,,,0.00,Acu-Link.com,2013-08-25 21:45:00,
2013-08-25 17:00:00,85.6,72.9,29.93,SSE,157,2.7,-999.0,66,-99.99,,,0.00,Acu-Link.com,2013-08-25 22:00:00,
2013-08-25 17:15:00,84.6,72.0,29.93,SSE,157,3.2,-999.0,66,-99.99,,,0.00,Acu-Link.com,2013-08-25 22:15:00,
2013-08-25 17:30:00,85.5,72.8,29.93,ESE,112,4.7,-999.0,66,-99.99,,,0.00,Acu-Link.com,2013-08-25 22:30:00,
2013-08-25 17:46:00,85.6,72.0,29.93,SE,135,2.7,-999.0,64,-99.99,,,0.00,Acu-Link.com,2013-08-25 22:46:00,
2013-08-25 18:01:00,84.4,71.8,29.93,SSE,157,4.7,-999.0,66,-99.99,,,0.00,Acu-Link.com,2013-08-25 23:01:00,
2013-08-25 18:16:00,83.3,71.2,29.94,SSE,157,3.7,-999.0,67,-99.99,,,0.00,Acu-Link.com,2013-08-25 23:16:00,
2013-08-25 18:31:00,82.6,71.4,29.93,SE,135,3.2,-999.0,69,-99.99,,,0.00,Acu-Link.com,2013-08-25 23:31:00,
2013-08-25 18:46:00,81.7,70.9,29.94,SE,135,3.2,-999.0,70,-99.99,,,0.00,Acu-Link.com,2013-08-25 23:46:00,
2013-08-25 19:02:00,80.2,69.9,29.93,SE,135,3.2,-999.0,71,-99.99,,,0.00,Acu-Link.com,2013-08-26 00:02:00,
2013-08-25 19:17:00,79.2,69.8,29.93,SSE,157,2.2,-999.0,73,-99.99,,,0.00,Acu-Link.com,2013-08-26 00:17:00,
2013-08-25 19:32:00,77.4,69.2,29.93,SSE,157,0.0,-999.0,76,-99.99,,,0.00,Acu-Link.com,2013-08-26 00:32:00,
2013-08-25 19:47:00,75.7,68.7,29.93,SE,135,0.0,-999.0,79,-99.99,,,0.00,Acu-Link.com,2013-08-26 00:47:00,
2013-08-25 20:02:00,73.8,68.3,29.93,South,180,0.0,-999.0,83,-99.99,,,0.00,Acu-Link.com,2013-08-26 01:02:00,
2013-08-25 20:18:00,72.3,66.8,29.93,SE,135,0.0,-999.0,83,-99.99,,,0.00,Acu-Link.com,2013-08-26 01:18:00,
2013-08-25 20:33:00,71.4,66.6,29.95,SE,135,0.0,-999.0,85,-99.99,,,0.00,Acu-Link.com,2013-08-26 01:33:00,
2013-08-25 20:48:00,70.7,66.6,29.95,SE,135,0.0,-999.0,87,-99.99,,,0.00,Acu-Link.com,2013-08-26 01:48:00,
2013-08-25 21:03:00,70.2,66.5,29.95,SSE,157,0.0,-999.0,88,-99.99,,,0.00,Acu-Link.com,2013-08-26 02:03:00,
2013-08-25 21:19:00,69.8,66.4,29.97,SSE,157,0.0,-999.0,89,-99.99,,,0.00,Acu-Link.com,2013-08-26 02:19:00,
2013-08-25 21:34:00,69.6,66.5,29.97,SSW,202,0.0,-999.0,90,-99.99,,,0.00,Acu-Link.com,2013-08-26 02:34:00,
2013-08-25 21:49:00,69.8,67.0,29.97,SSE,157,0.0,-999.0,91,-99.99,,,0.00,Acu-Link.com,2013-08-26 02:49:00,
2013-08-25 22:04:00,68.9,66.2,29.97,SE,135,0.0,-999.0,91,-99.99,,,0.00,Acu-Link.com,2013-08-26 03:04:00,
2013-08-25 22:19:00,68.4,65.7,29.98,SSE,157,0.0,-999.0,91,-99.99,,,0.00,Acu-Link.com,2013-08-26 03:19:00,
2013-08-25 22:35:00,67.8,65.1,29.98,SE,135,0.0,-999.0,91,-99.99,,,0.00,Acu-Link.com,2013-08-26 03:35:00,
2013-08-25 22:50:00,67.5,64.8,29.97,SSW,202,0.0,-999.0,91,-99.99,,,0.00,Acu-Link.com,2013-08-26 03:50:00,
2013-08-25 23:05:00,67.1,64.7,29.98,South,180,0.0,-999.0,92,-99.99,,,0.00,Acu-Link.com,2013-08-26 04:05:00,
2013-08-25 23:20:00,66.7,64.3,29.98,SSE,157,0.0,-999.0,92,-99.99,,,0.00,Acu-Link.com,2013-08-26 04:20:00,
2013-08-25 23:35:00,67.1,65.0,29.97,SE,135,0.0,-999.0,93,-99.99,,,0.00,Acu-Link.com,2013-08-26 04:35:00,
2013-08-25 23:51:00,66.7,64.6,29.97,SSE,157,0.0,-999.0,93,-99.99,,,0.00,Acu-Link.com,2013-08-26 04:51:00,